createdAt,value
2018-02-27T00:00:40.471Z,97832.43
2018-02-27T00:03:07.897Z,97827.59
2018-02-27T00:05:35.360Z,97821.35
2018-02-27T00:08:02.818Z,97815.25
2018-02-27T00:10:30.290Z,97814.90
2018-02-27T00:12:57.751Z,97810.55
2018-02-27T00:15:25.288Z,97812.28
2018-02-27T00:17:52.746Z,97814.63
2018-02-27T00:20:20.223Z,97816.34
2018-02-27T00:22:47.679Z,97805.50
2018-02-27T00:25:15.122Z,97809.25
2018-02-27T00:27:42.562Z,97807.80
2018-02-27T00:30:10.051Z,97814.58
2018-02-27T00:32:37.487Z,97809.80
2018-02-27T00:35:04.957Z,97809.17
2018-02-27T00:37:32.389Z,97801.88
2018-02-27T00:39:59.911Z,97796.07
2018-02-27T00:42:27.325Z,97793.34
2018-02-27T00:44:54.746Z,97789.92
2018-02-27T00:47:22.191Z,97787.56
2018-02-27T00:49:49.631Z,97788.83
2018-02-27T00:52:17.092Z,97786.44
2018-02-27T00:54:44.514Z,97786.39
2018-02-27T00:57:11.976Z,97791.00
2018-02-27T00:59:39.560Z,97788.56
2018-02-27T01:02:07.023Z,97788.16
2018-02-27T01:04:34.468Z,97791.45
2018-02-27T01:07:01.919Z,97791.17
2018-02-27T01:09:29.401Z,97783.14
2018-02-27T01:11:56.870Z,97779.75
2018-02-27T01:14:24.334Z,97785.67
2018-02-27T01:16:51.851Z,97777.18
2018-02-27T01:19:19.303Z,97771.67
2018-02-27T01:21:46.754Z,97778.08
2018-02-27T01:24:14.194Z,97776.72
2018-02-27T01:26:41.625Z,97764.08
2018-02-27T01:29:09.262Z,97775.36
2018-02-27T01:31:36.691Z,97771.48
2018-02-27T01:34:04.156Z,97771.27
2018-02-27T01:36:31.593Z,97769.00
2018-02-27T01:38:59.050Z,97767.38
2018-02-27T01:41:26.488Z,97765.47
2018-02-27T01:43:53.952Z,97763.40
2018-02-27T01:46:21.389Z,97767.06
2018-02-27T01:48:48.807Z,97760.43
2018-02-27T01:51:16.268Z,97761.41
2018-02-27T01:53:43.689Z,97758.02
2018-02-27T01:56:11.156Z,97757.66
2018-02-27T01:58:38.582Z,97755.55
2018-02-27T02:01:06.045Z,97753.41
2018-02-27T02:03:33.484Z,97750.96
2018-02-27T02:06:00.979Z,97751.83
2018-02-27T02:08:28.400Z,97746.63
2018-02-27T02:10:55.833Z,97739.74
2018-02-27T02:13:23.286Z,97740.11
2018-02-27T02:15:50.715Z,97739.53
2018-02-27T02:18:18.172Z,97749.45
2018-02-27T02:20:45.601Z,97736.56
2018-02-27T02:23:13.142Z,97737.63
2018-02-27T02:25:40.672Z,97735.52
2018-02-27T02:28:08.133Z,97727.81
2018-02-27T02:30:35.590Z,97733.79
2018-02-27T02:33:03.087Z,97721.56
2018-02-27T02:35:30.570Z,97729.51
2018-02-27T02:38:00.157Z,97727.42
2018-02-27T02:40:27.582Z,97724.02
2018-02-27T02:42:55.056Z,97734.62
2018-02-27T02:45:22.504Z,97731.45
2018-02-27T02:47:49.950Z,97730.52
2018-02-27T02:50:17.374Z,97727.19
2018-02-27T02:52:44.848Z,97726.70
2018-02-27T02:55:12.323Z,97720.89
2018-02-27T02:57:39.796Z,97716.17
2018-02-27T03:00:07.246Z,97722.81
2018-02-27T03:02:34.677Z,97715.55
2018-02-27T03:05:02.137Z,97718.75
2018-02-27T03:07:29.567Z,97713.33
2018-02-27T03:09:57.035Z,97712.97
2018-02-27T03:12:28.375Z,97715.81
2018-02-27T03:14:55.790Z,97706.92
2018-02-27T03:17:23.255Z,97707.15
2018-02-27T03:19:50.692Z,97705.31
2018-02-27T03:22:18.198Z,97705.89
2018-02-27T03:24:45.641Z,97703.77
2018-02-27T03:27:13.108Z,97702.41
2018-02-27T03:29:40.582Z,97701.33
2018-02-27T03:32:08.039Z,97700.70
2018-02-27T03:34:35.461Z,97695.69
2018-02-27T03:37:03.311Z,97694.38
2018-02-27T03:39:30.745Z,97697.45
2018-02-27T03:41:58.211Z,97695.73
2018-02-27T03:44:25.635Z,97692.67
2018-02-27T03:46:53.101Z,97690.27
2018-02-27T03:49:20.527Z,97690.81
2018-02-27T03:51:48.067Z,97697.27
2018-02-27T03:54:15.511Z,97689.23
2018-02-27T03:56:42.961Z,97691.31
2018-02-27T03:59:10.423Z,97689.81
2018-02-27T04:01:37.900Z,97684.08
2018-02-27T04:04:05.440Z,97680.88
2018-02-27T04:06:32.881Z,97676.33
2018-02-27T04:09:00.350Z,97674.98
2018-02-27T04:11:27.783Z,97683.01
2018-02-27T04:13:55.236Z,97679.89
2018-02-27T04:16:22.693Z,97685.04
2018-02-27T04:18:50.120Z,97677.36
2018-02-27T04:21:17.564Z,97680.70
2018-02-27T04:23:45.013Z,97680.42
2018-02-27T04:26:12.462Z,97679.93
2018-02-27T04:28:39.893Z,97682.12
2018-02-27T04:31:07.344Z,97677.20
2018-02-27T04:33:34.842Z,97684.96
2018-02-27T04:36:02.266Z,97681.14
2018-02-27T04:38:29.719Z,97684.17
2018-02-27T04:40:57.185Z,97684.58
2018-02-27T04:43:24.622Z,97686.41
2018-02-27T04:45:52.158Z,97684.71
2018-02-27T04:48:19.610Z,97683.71
2018-02-27T04:50:47.113Z,97687.98
2018-02-27T04:53:14.550Z,97680.16
2018-02-27T04:55:42.015Z,97679.59
2018-02-27T04:58:09.480Z,97681.77
2018-02-27T05:00:36.950Z,97688.64
2018-02-27T05:03:04.407Z,97688.64
2018-02-27T05:05:31.853Z,97682.90
2018-02-27T05:07:59.324Z,97687.14
2018-02-27T05:10:26.875Z,97686.84
2018-02-27T05:12:54.319Z,97685.63
2018-02-27T05:15:21.781Z,97678.20
2018-02-27T05:17:49.261Z,97682.98
2018-02-27T05:20:17.623Z,97679.48
2018-02-27T05:22:45.212Z,97677.67
2018-02-27T05:25:12.741Z,97677.03
2018-02-27T05:27:40.174Z,97672.34
2018-02-27T05:30:07.678Z,97670.59
2018-02-27T05:32:35.664Z,97673.05
2018-02-27T05:35:03.093Z,97670.55
2018-02-27T05:37:30.564Z,97667.81
2018-02-27T05:39:58.003Z,97668.47
2018-02-27T05:42:25.444Z,97671.53
2018-02-27T05:44:52.917Z,97676.68
2018-02-27T05:47:20.378Z,97655.40
2018-02-27T05:49:47.840Z,97677.44
2018-02-27T05:52:15.317Z,97681.45
2018-02-27T05:54:42.739Z,97677.58
2018-02-27T05:57:10.244Z,97662.52
2018-02-27T05:59:37.696Z,97672.21
2018-02-27T06:02:05.346Z,97673.73
2018-02-27T06:04:32.978Z,97673.20
2018-02-27T06:07:00.543Z,97678.16
2018-02-27T06:09:28.225Z,97671.33
2018-02-27T06:11:55.691Z,97679.25
2018-02-27T06:14:23.172Z,97678.94
2018-02-27T06:16:50.653Z,97676.73
2018-02-27T06:19:18.069Z,97675.94
2018-02-27T06:21:46.151Z,97679.56
2018-02-27T06:24:13.607Z,97676.58
2018-02-27T06:26:41.088Z,97676.68
2018-02-27T06:29:08.512Z,97675.05
2018-02-27T06:31:35.978Z,97682.11
2018-02-27T06:34:03.928Z,97677.56
2018-02-27T06:36:31.374Z,97676.05
2018-02-27T06:38:58.846Z,97685.47
2018-02-27T06:41:26.283Z,97680.71
2018-02-27T06:43:53.761Z,97681.63
2018-02-27T06:46:21.381Z,97678.24
2018-02-27T06:48:48.843Z,97674.41
2018-02-27T06:51:16.317Z,97678.14
2018-02-27T06:53:43.794Z,97679.49
2018-02-27T06:56:11.250Z,97678.77
2018-02-27T06:58:38.683Z,97681.48
2018-02-27T07:01:06.157Z,97669.09
2018-02-27T07:03:33.626Z,97673.91
2018-02-27T07:06:01.130Z,97664.82
2018-02-27T07:08:28.601Z,97670.31
2018-02-27T07:10:56.066Z,97663.33
2018-02-27T07:13:23.506Z,97669.28
2018-02-27T07:15:50.970Z,97666.79
2018-02-27T07:18:18.436Z,97662.06
2018-02-27T07:20:45.882Z,97662.38
2018-02-27T07:23:13.381Z,97659.07
2018-02-27T07:25:40.903Z,97666.88
2018-02-27T07:28:08.373Z,97666.56
2018-02-27T07:30:35.806Z,97665.75
2018-02-27T07:33:03.310Z,97665.12
2018-02-27T07:35:30.764Z,97662.50
2018-02-27T07:37:58.217Z,97668.20
2018-02-27T07:40:25.714Z,97666.86
2018-02-27T07:42:53.159Z,97659.44
2018-02-27T07:45:20.592Z,97666.02
2018-02-27T07:47:48.078Z,97666.42
2018-02-27T07:50:15.679Z,97661.55
2018-02-27T07:52:43.124Z,97656.52
2018-02-27T07:55:10.573Z,97666.83
2018-02-27T07:57:38.013Z,97670.66
2018-02-27T08:00:05.440Z,97678.20
2018-02-27T08:02:32.900Z,97681.00
2018-02-27T08:05:00.363Z,97679.40
2018-02-27T08:07:27.835Z,97676.78
2018-02-27T08:09:55.301Z,97675.63
2018-02-27T08:12:23.367Z,97675.16
2018-02-27T08:14:50.802Z,97677.66
2018-02-27T08:17:18.265Z,97672.11
2018-02-27T08:19:45.781Z,97669.22
2018-02-27T08:22:13.229Z,97668.52
2018-02-27T08:24:40.731Z,97677.52
2018-02-27T08:27:08.187Z,97673.16
2018-02-27T08:29:36.252Z,97673.94
2018-02-27T08:32:03.734Z,97673.54
2018-02-27T08:34:31.255Z,97669.44
2018-02-27T08:36:58.700Z,97676.16
2018-02-27T08:39:26.150Z,97672.92
2018-02-27T08:41:53.610Z,97673.78
2018-02-27T08:44:21.047Z,97673.95
2018-02-27T08:46:48.504Z,97673.86
2018-02-27T08:49:15.954Z,97674.97
2018-02-27T08:51:43.454Z,97672.33
2018-02-27T08:54:11.015Z,97674.39
2018-02-27T08:56:38.600Z,97672.51
2018-02-27T08:59:06.144Z,97673.59
2018-02-27T09:01:33.574Z,97668.16
2018-02-27T09:04:01.037Z,97671.81
2018-02-27T09:06:28.475Z,97666.19
2018-02-27T09:08:55.937Z,97664.59
2018-02-27T09:11:23.389Z,97660.61
2018-02-27T09:13:50.901Z,97666.28
2018-02-27T09:16:18.374Z,97665.69
2018-02-27T09:18:45.807Z,97664.92
2018-02-27T09:21:13.315Z,97663.02
2018-02-27T09:23:40.748Z,97659.73
2018-02-27T09:26:08.358Z,97664.05
2018-02-27T09:28:35.791Z,97652.81
2018-02-27T09:31:03.220Z,97660.20
2018-02-27T09:33:30.716Z,97660.41
2018-02-27T09:35:58.140Z,97657.77
2018-02-27T09:38:25.649Z,97653.30
2018-02-27T09:40:53.042Z,97660.80
2018-02-27T09:43:20.505Z,97657.98
2018-02-27T09:45:48.083Z,97653.64
2018-02-27T09:48:15.544Z,97644.78
2018-02-27T09:50:42.997Z,97644.48
2018-02-27T09:53:10.427Z,97646.59
2018-02-27T09:55:37.969Z,97643.36
2018-02-27T09:58:05.412Z,97643.96
2018-02-27T10:00:32.897Z,97639.59
2018-02-27T10:03:00.347Z,97643.63
2018-02-27T10:05:27.832Z,97642.95
2018-02-27T10:07:55.269Z,97637.70
2018-02-27T10:10:22.696Z,97639.25
2018-02-27T10:12:50.158Z,97637.45
2018-02-27T10:15:17.584Z,97638.11
2018-02-27T10:17:45.060Z,97638.27
2018-02-27T10:20:12.490Z,97631.98
2018-02-27T10:22:40.013Z,97647.14
2018-02-27T10:25:07.440Z,97642.22
2018-02-27T10:27:34.955Z,97644.20
2018-02-27T10:30:02.376Z,97645.66
2018-02-27T10:32:29.800Z,97643.56
2018-02-27T10:34:57.289Z,97645.39
2018-02-27T10:37:24.734Z,97644.95
2018-02-27T10:39:52.232Z,97643.39
2018-02-27T10:42:19.696Z,97651.07
2018-02-27T10:44:47.166Z,97641.27
2018-02-27T10:47:14.602Z,97636.14
2018-02-27T10:49:42.064Z,97634.97
2018-02-27T10:52:09.527Z,97633.27
2018-02-27T10:54:36.992Z,97640.16
2018-02-27T10:57:04.419Z,97641.26
2018-02-27T10:59:31.888Z,97640.56
2018-02-27T11:02:14.232Z,97648.63
2018-02-27T11:04:41.666Z,97639.33
2018-02-27T11:07:09.135Z,97640.48
2018-02-27T11:09:36.574Z,97630.27
2018-02-27T11:12:04.124Z,97631.84
2018-02-27T11:14:31.606Z,97629.75
2018-02-27T11:16:59.093Z,97629.27
2018-02-27T11:19:26.556Z,97626.89
2018-02-27T11:21:53.993Z,97623.30
2018-02-27T11:24:21.503Z,97617.78
2018-02-27T11:26:48.955Z,97619.66
2018-02-27T11:29:16.410Z,97621.73
2018-02-27T11:31:43.891Z,97629.05
2018-02-27T11:34:11.395Z,97616.13
2018-02-27T11:36:38.904Z,97615.25
2018-02-27T11:39:06.334Z,97616.47
2018-02-27T11:41:33.978Z,97611.38
2018-02-27T11:44:01.501Z,97610.97
2018-02-27T11:46:28.973Z,97610.98
2018-02-27T11:48:56.474Z,97613.13
2018-02-27T11:51:23.912Z,97603.70
2018-02-27T11:53:51.365Z,97601.02
2018-02-27T11:56:18.840Z,97601.31
2018-02-27T11:58:46.259Z,97602.58
2018-02-27T12:01:13.881Z,97602.68
2018-02-27T12:03:41.355Z,97597.57
2018-02-27T12:06:08.898Z,97597.17
2018-02-27T12:08:36.659Z,97594.54
2018-02-27T12:11:04.131Z,97584.22
2018-02-27T12:13:31.665Z,97593.25
2018-02-27T12:15:59.089Z,97587.83
2018-02-27T12:18:26.613Z,97582.55
2018-02-27T12:20:54.081Z,97585.72
2018-02-27T12:23:21.550Z,97582.22
2018-02-27T12:25:49.012Z,97578.81
2018-02-27T12:28:16.471Z,97574.56
2018-02-27T12:30:43.928Z,97576.28
2018-02-27T12:33:11.405Z,97579.75
2018-02-27T12:35:38.836Z,97577.52
2018-02-27T12:38:06.321Z,97579.30
2018-02-27T12:40:33.810Z,97573.02
2018-02-27T12:43:01.247Z,97569.16
2018-02-27T12:45:28.713Z,97567.73
2018-02-27T12:47:56.166Z,97568.56
2018-02-27T12:50:23.664Z,97563.05
2018-02-27T12:52:51.121Z,97554.91
2018-02-27T12:55:18.584Z,97549.36
2018-02-27T12:57:46.019Z,97545.32
2018-02-27T13:00:13.487Z,97545.14
2018-02-27T13:02:40.924Z,97543.86
2018-02-27T13:05:08.412Z,97550.35
2018-02-27T13:07:35.853Z,97554.45
2018-02-27T13:10:03.339Z,97549.96
2018-02-27T13:12:30.777Z,97553.94
2018-02-27T13:14:58.253Z,97552.69
2018-02-27T13:17:25.720Z,97547.61
2018-02-27T13:19:53.188Z,97542.29
2018-02-27T13:22:20.668Z,97539.05
2018-02-27T13:24:48.098Z,97542.14
2018-02-27T13:27:15.560Z,97532.59
2018-02-27T13:29:43.048Z,97533.80
2018-02-27T13:32:10.505Z,97530.77
2018-02-27T13:34:37.941Z,97531.54
2018-02-27T13:39:39.431Z,97534.69
2018-02-27T13:42:06.895Z,97535.12
2018-02-27T13:44:34.374Z,97538.82
2018-02-27T13:47:01.814Z,97538.34
2018-02-27T13:49:29.305Z,97540.04
2018-02-27T13:51:56.774Z,97534.75
2018-02-27T13:54:24.247Z,97525.30
2018-02-27T13:56:51.700Z,97538.07
2018-02-27T13:59:19.286Z,97533.38
2018-02-27T14:01:46.718Z,97531.55
2018-02-27T14:04:14.160Z,97532.17
2018-02-27T14:06:41.636Z,97523.17
2018-02-27T14:09:09.066Z,97528.29
2018-02-27T14:11:36.529Z,97529.78
2018-02-27T14:14:03.973Z,97534.32
2018-02-27T14:16:31.426Z,97525.64
2018-02-27T14:18:58.893Z,97531.65
2018-02-27T14:21:26.381Z,97535.47
2018-02-27T14:23:53.830Z,97528.22
2018-02-27T14:26:21.290Z,97525.38
2018-02-27T14:28:48.738Z,97534.55
2018-02-27T14:31:16.798Z,97522.79
2018-02-27T14:33:44.297Z,97521.02
2018-02-27T14:36:11.846Z,97512.55
2018-02-27T14:38:39.419Z,97512.58
2018-02-27T14:41:06.852Z,97508.16
2018-02-27T14:43:34.382Z,97514.77
2018-02-27T14:46:01.836Z,97512.12
2018-02-27T14:48:29.275Z,97508.78
2018-02-27T14:50:56.737Z,97503.96
2018-02-27T14:53:24.165Z,97505.26
2018-02-27T14:55:51.687Z,97506.73
2018-02-27T14:58:19.244Z,97510.02
2018-02-27T15:00:46.766Z,97506.16
2018-02-27T15:03:14.196Z,97502.58
2018-02-27T15:05:41.666Z,97514.28
2018-02-27T15:08:09.165Z,97513.02
2018-02-27T15:10:36.613Z,97514.95
2018-02-27T15:13:04.080Z,97514.63
2018-02-27T15:15:31.573Z,97522.79
2018-02-27T15:17:59.078Z,97518.59
2018-02-27T15:20:26.642Z,97517.67
2018-02-27T15:22:54.152Z,97509.30
2018-02-27T15:25:21.649Z,97513.03
2018-02-27T15:27:49.101Z,97508.47
2018-02-27T15:30:16.571Z,97511.11
2018-02-27T15:32:43.994Z,97502.59
2018-02-27T15:35:11.466Z,97500.41
2018-02-27T15:37:38.945Z,97510.80
2018-02-27T15:40:06.438Z,97514.95
2018-02-27T15:42:33.904Z,97513.11
2018-02-27T15:45:01.340Z,97511.89
2018-02-27T15:47:28.867Z,97509.17
2018-02-27T15:49:56.426Z,97515.45
2018-02-27T15:52:23.869Z,97511.41
2018-02-27T15:54:51.367Z,97509.80
2018-02-27T15:57:18.782Z,97512.21
2018-02-27T15:59:46.261Z,97516.30
2018-02-27T16:02:13.764Z,97516.69
2018-02-27T16:04:41.234Z,97514.69
2018-02-27T16:07:08.665Z,97521.15
2018-02-27T16:09:36.124Z,97513.73
2018-02-27T16:12:03.572Z,97518.84
2018-02-27T16:14:31.047Z,97522.85
2018-02-27T16:16:58.488Z,97517.00
2018-02-27T16:19:25.978Z,97519.16
2018-02-27T16:21:53.600Z,97512.46
2018-02-27T16:24:21.161Z,97526.83
2018-02-27T16:26:48.640Z,97527.54
2018-02-27T16:29:16.128Z,97524.96
2018-02-27T16:31:43.599Z,97526.69
2018-02-27T16:34:11.124Z,97533.56
2018-02-27T16:36:39.182Z,97537.66
2018-02-27T16:39:06.646Z,97543.14
2018-02-27T16:41:34.209Z,97543.61
2018-02-27T16:44:01.704Z,97550.39
2018-02-27T16:46:29.374Z,97555.55
2018-02-27T16:48:56.954Z,97566.61
2018-02-27T16:51:24.704Z,97562.34
2018-02-27T16:53:52.160Z,97570.23
2018-02-27T16:56:19.907Z,97576.29
2018-02-27T16:58:47.426Z,97580.03
2018-02-27T17:01:14.906Z,97576.91
2018-02-27T17:03:42.394Z,97581.37
2018-02-27T17:06:09.864Z,97583.38
2018-02-27T17:08:37.344Z,97590.16
2018-02-27T17:11:04.826Z,97586.90
2018-02-27T17:13:32.289Z,97594.69
2018-02-27T17:15:59.793Z,97595.52
2018-02-27T17:18:27.248Z,97599.27
2018-02-27T17:20:54.747Z,97596.92
2018-02-27T17:23:22.272Z,97605.52
2018-02-27T17:25:49.763Z,97605.61
2018-02-27T17:28:17.360Z,97600.45
2018-02-27T17:30:44.841Z,97606.61
2018-02-27T17:33:12.306Z,97610.55
2018-02-27T17:35:39.868Z,97611.17
2018-02-27T17:38:07.300Z,97611.75
2018-02-27T17:40:34.758Z,97609.13
2018-02-27T17:43:02.223Z,97602.08
2018-02-27T17:45:29.684Z,97602.35
2018-02-27T17:47:57.159Z,97606.48
2018-02-27T17:50:24.607Z,97603.05
2018-02-27T17:52:52.073Z,97607.11
2018-02-27T17:55:19.556Z,97612.28
2018-02-27T17:57:47.052Z,97605.81
2018-02-27T18:00:14.535Z,97607.63
2018-02-27T18:02:42.017Z,97607.45
2018-02-27T18:05:09.490Z,97605.22
2018-02-27T18:07:37.015Z,97606.44
2018-02-27T18:10:04.548Z,97601.67
2018-02-27T18:12:32.494Z,97602.89
2018-02-27T18:14:59.990Z,97602.89
2018-02-27T18:17:27.454Z,97598.84
2018-02-27T18:19:54.908Z,97600.77
2018-02-27T18:22:22.411Z,97600.56
2018-02-27T18:24:49.907Z,97601.25
2018-02-27T18:27:17.445Z,97604.31
2018-02-27T18:29:44.922Z,97600.13
2018-02-27T18:32:12.446Z,97597.33
2018-02-27T18:34:39.941Z,97594.78
2018-02-27T18:37:07.418Z,97589.25
2018-02-27T18:39:34.938Z,97593.80
2018-02-27T18:42:02.453Z,97593.48
2018-02-27T18:44:29.919Z,97595.30
2018-02-27T18:46:57.381Z,97593.37
2018-02-27T18:49:24.884Z,97594.10
2018-02-27T18:51:52.366Z,97593.78
2018-02-27T18:54:19.910Z,97595.20
2018-02-27T18:56:47.984Z,97593.20
2018-02-27T18:59:15.454Z,97596.02
2018-02-27T19:01:43.881Z,97599.95
2018-02-27T19:04:11.388Z,97591.16
2018-02-27T19:06:38.888Z,97592.77
2018-02-27T19:09:06.339Z,97592.08
2018-02-27T19:11:33.851Z,97589.76
2018-02-27T19:14:01.338Z,97583.98
2018-02-27T19:16:28.799Z,97590.86
2018-02-27T19:18:56.259Z,97590.05
2018-02-27T19:21:23.761Z,97590.94
2018-02-27T19:23:51.221Z,97588.72
2018-02-27T19:26:18.710Z,97594.39
2018-02-27T19:28:46.182Z,97593.77
2018-02-27T19:31:13.653Z,97589.23
2018-02-27T19:33:41.217Z,97594.66
2018-02-27T19:36:08.878Z,97592.63
2018-02-27T19:38:36.412Z,97597.28
2018-02-27T19:41:03.946Z,97598.60
2018-02-27T19:43:31.506Z,97601.02
2018-02-27T19:45:58.970Z,97600.72
2018-02-27T19:48:26.579Z,97601.52
2018-02-27T19:50:54.060Z,97594.66
2018-02-27T19:53:21.547Z,97600.12
2018-02-27T19:55:48.995Z,97605.27
2018-02-27T19:58:16.495Z,97600.91
2018-02-27T20:00:43.965Z,97603.66
2018-02-27T20:03:11.419Z,97603.05
2018-02-27T20:05:38.927Z,97604.96
2018-02-27T20:08:06.420Z,97600.33
2018-02-27T20:10:34.510Z,97601.93
2018-02-27T20:13:01.955Z,97609.00
2018-02-27T20:15:29.584Z,97601.70
2018-02-27T20:18:03.263Z,97604.12
2018-02-27T20:20:31.223Z,97604.45
2018-02-27T20:23:04.285Z,97604.94
2018-02-27T20:25:31.748Z,97600.09
2018-02-27T20:27:59.334Z,97604.52
2018-02-27T20:30:26.806Z,97605.69
2018-02-27T20:32:54.289Z,97604.89
2018-02-27T20:35:21.759Z,97605.00
2018-02-27T20:37:49.236Z,97604.81
2018-02-27T20:40:16.738Z,97607.95
2018-02-27T20:42:44.256Z,97605.11
2018-02-27T20:45:11.714Z,97608.15
2018-02-27T20:47:39.201Z,97615.31
2018-02-27T20:50:06.619Z,97616.22
2018-02-27T20:52:34.102Z,97615.42
2018-02-27T20:55:01.555Z,97605.02
2018-02-27T20:57:29.768Z,97613.91
2018-02-27T20:59:57.297Z,97614.61
2018-02-27T21:02:24.728Z,97617.82
2018-02-27T21:04:52.263Z,97618.39
2018-02-27T21:07:19.723Z,97620.50
2018-02-27T21:09:47.244Z,97612.14
2018-02-27T21:12:14.870Z,97612.11
2018-02-27T21:14:42.513Z,97612.61
2018-02-27T21:17:09.987Z,97610.19
2018-02-27T21:19:37.566Z,97609.25
2018-02-27T21:22:05.332Z,97614.00
2018-02-27T21:24:33.015Z,97613.23
2018-02-27T21:27:00.678Z,97609.90
2018-02-27T21:29:28.225Z,97614.04
2018-02-27T21:31:55.851Z,97614.80
2018-02-27T21:34:23.324Z,97615.91
2018-02-27T21:36:50.834Z,97608.73
2018-02-27T21:39:18.360Z,97613.76
2018-02-27T21:41:45.983Z,97606.68
2018-02-27T21:44:13.413Z,97608.81
2018-02-27T21:46:40.899Z,97613.55
2018-02-27T21:49:08.346Z,97610.02
2018-02-27T21:51:35.832Z,97602.84
2018-02-27T21:54:03.554Z,97599.31
2018-02-27T21:56:31.066Z,97607.19
2018-02-27T21:58:58.510Z,97608.41
2018-02-27T22:01:26.847Z,97607.78
2018-02-27T22:03:54.330Z,97606.70
2018-02-27T22:06:21.793Z,97603.25
2018-02-27T22:08:49.271Z,97592.58
2018-02-27T22:11:16.709Z,97600.32
2018-02-27T22:13:44.178Z,97601.70
2018-02-27T22:16:11.641Z,97600.77
2018-02-27T22:18:39.128Z,97603.18
2018-02-27T22:21:06.616Z,97602.56
2018-02-27T22:23:34.113Z,97606.38
2018-02-27T22:26:01.764Z,97610.44
2018-02-27T22:28:29.259Z,97602.73
2018-02-27T22:30:56.881Z,97614.22
2018-02-27T22:33:24.351Z,97615.72
2018-02-27T22:35:52.105Z,97607.63
2018-02-27T22:38:19.833Z,97613.16
2018-02-27T22:40:47.336Z,97614.36
2018-02-27T22:43:14.800Z,97611.27
2018-02-27T22:45:42.265Z,97609.09
2018-02-27T22:48:09.881Z,97610.69
2018-02-27T22:50:37.429Z,97608.59
2018-02-27T22:53:05.334Z,97605.17
2018-02-27T22:55:32.841Z,97598.95
2018-02-27T22:58:00.315Z,97603.20
2018-02-27T23:00:43.619Z,97600.05
2018-02-27T23:03:11.089Z,97597.12
2018-02-27T23:05:38.720Z,97595.25
2018-02-27T23:08:06.319Z,97595.47
2018-02-27T23:10:33.912Z,97591.41
2018-02-27T23:13:01.376Z,97589.30
2018-02-27T23:15:28.847Z,97588.48
2018-02-27T23:17:56.287Z,97586.61
2018-02-27T23:20:23.784Z,97583.15
2018-02-27T23:22:51.222Z,97591.47
2018-02-27T23:25:25.071Z,97580.23
2018-02-27T23:27:53.071Z,97584.05
2018-02-27T23:30:21.142Z,97581.61
2018-02-27T23:32:55.843Z,97581.92
2018-02-27T23:35:24.647Z,97578.21
2018-02-27T23:37:52.572Z,97581.95
2018-02-27T23:40:20.022Z,97585.20
2018-02-27T23:42:47.503Z,97580.71
2018-02-27T23:45:14.956Z,97583.73
2018-02-27T23:47:42.393Z,97583.55
2018-02-27T23:50:09.854Z,97581.11
2018-02-27T23:52:37.319Z,97583.91
2018-02-27T23:55:04.843Z,97583.25
2018-02-27T23:57:32.273Z,97577.98
2018-02-27T23:59:59.751Z,97579.75
